createdAt,value
2022-12-10T00:02:34.758Z,1.25
2022-12-10T00:05:37.542Z,1.26
2022-12-10T00:08:40.208Z,1.26
2022-12-10T00:11:44.149Z,1.26
2022-12-10T00:14:46.765Z,1.27
2022-12-10T00:17:49.329Z,1.23
2022-12-10T00:20:51.904Z,1.19
2022-12-10T00:23:54.666Z,1.25
2022-12-10T00:26:58.622Z,1.26
2022-12-10T00:30:01.215Z,1.25
2022-12-10T00:33:03.862Z,1.27
2022-12-10T00:36:07.458Z,1.27
2022-12-10T00:39:10.032Z,1.24
2022-12-10T00:42:13.989Z,1.20
2022-12-10T00:45:16.659Z,1.19
2022-12-10T00:48:19.245Z,1.19
2022-12-10T00:51:22.549Z,1.19
2022-12-10T00:54:25.165Z,1.20
2022-12-10T00:57:29.113Z,1.25
2022-12-10T01:00:31.756Z,1.26
2022-12-10T01:03:34.376Z,1.17
2022-12-10T01:06:38.006Z,1.31
2022-12-10T01:09:40.633Z,1.31
2022-12-10T01:12:45.874Z,1.31
2022-12-10T01:15:48.477Z,1.32
2022-12-10T01:18:51.085Z,1.31
2022-12-10T01:21:53.819Z,1.31
2022-12-10T01:24:56.430Z,1.33
2022-12-10T01:28:00.370Z,1.31
2022-12-10T01:31:03.801Z,1.28
2022-12-10T01:34:07.482Z,1.27
2022-12-10T01:37:10.088Z,1.31
2022-12-10T01:40:13.485Z,1.31
2022-12-10T01:43:17.465Z,1.31
2022-12-10T01:46:20.060Z,1.32
2022-12-10T01:49:23.459Z,1.35
2022-12-10T01:52:26.024Z,1.37
2022-12-10T01:55:44.263Z,1.37
2022-12-10T01:58:48.912Z,1.35
2022-12-10T02:01:54.100Z,1.31
2022-12-10T02:05:04.141Z,1.31
2022-12-10T02:08:08.509Z,1.31
2022-12-10T02:11:17.103Z,1.27
2022-12-10T02:14:24.481Z,1.32
2022-12-10T02:17:28.429Z,1.32
2022-12-10T02:20:33.785Z,1.31
2022-12-10T02:23:37.930Z,1.34
2022-12-10T02:26:44.959Z,1.36
2022-12-10T02:29:48.990Z,1.36
2022-12-10T02:32:51.561Z,1.34
2022-12-10T02:35:54.149Z,1.30
2022-12-10T02:38:56.841Z,1.31
2022-12-10T02:41:59.566Z,1.31
2022-12-10T02:45:03.499Z,1.28
2022-12-10T02:48:06.483Z,1.27
2022-12-10T02:51:09.163Z,1.23
2022-12-10T02:54:38.473Z,1.11
2022-12-10T02:57:44.363Z,1.19
2022-12-10T03:00:52.469Z,1.16
2022-12-10T03:03:56.718Z,1.12
2022-12-10T03:07:00.329Z,1.13
2022-12-10T03:10:04.946Z,1.14
2022-12-10T03:13:09.117Z,1.14
2022-12-10T03:16:13.126Z,1.12
2022-12-10T03:19:17.240Z,1.12
2022-12-10T03:22:20.347Z,1.15
2022-12-10T03:25:25.076Z,1.19
2022-12-10T03:28:27.682Z,1.21
2022-12-10T03:31:31.640Z,1.20
2022-12-10T03:34:34.276Z,1.18
2022-12-10T03:37:36.843Z,1.20
2022-12-10T03:40:39.400Z,1.22
2022-12-10T03:43:55.104Z,1.24
2022-12-10T03:46:59.069Z,1.22
2022-12-10T03:50:01.625Z,1.23
2022-12-10T03:53:04.222Z,1.17
2022-12-10T03:56:06.836Z,1.21
2022-12-10T03:59:09.405Z,1.18
2022-12-10T04:02:13.331Z,1.19
2022-12-10T04:05:16.669Z,1.20
2022-12-10T04:08:19.388Z,1.15
2022-12-10T04:11:22.028Z,1.11
2022-12-10T04:14:42.112Z,1.08
2022-12-10T04:17:46.093Z,1.05
2022-12-10T04:21:06.245Z,1.06
2022-12-10T04:24:27.516Z,1.09
2022-12-10T04:27:30.851Z,1.10
2022-12-10T04:30:33.563Z,1.12
2022-12-10T04:33:37.545Z,1.13
2022-12-10T04:36:40.151Z,1.14
2022-12-10T04:39:42.733Z,1.17
2022-12-10T04:42:45.342Z,1.19
2022-12-10T04:45:48.168Z,1.21
2022-12-10T04:48:52.155Z,1.23
2022-12-10T04:51:56.220Z,1.26
2022-12-10T04:54:58.853Z,1.25
2022-12-10T04:58:01.470Z,1.25
2022-12-10T05:01:04.619Z,1.26
2022-12-10T05:04:09.767Z,1.25
2022-12-10T05:07:12.393Z,1.30
2022-12-10T05:10:14.936Z,1.26
2022-12-10T05:13:17.497Z,1.32
2022-12-10T05:16:20.841Z,1.34
2022-12-10T05:19:24.813Z,1.39
2022-12-10T05:22:45.217Z,1.38
2022-12-10T05:25:54.492Z,1.39
2022-12-10T05:28:57.781Z,1.37
2022-12-10T05:32:00.376Z,1.35
2022-12-10T05:35:04.549Z,1.30
2022-12-10T05:38:07.145Z,1.28
2022-12-10T05:41:12.654Z,1.29
2022-12-10T05:44:15.233Z,1.29
2022-12-10T05:47:17.800Z,1.31
2022-12-10T05:50:21.708Z,1.32
2022-12-10T05:53:24.289Z,1.26
2022-12-10T05:56:27.228Z,1.19
2022-12-10T05:59:29.795Z,1.17
2022-12-10T06:02:34.387Z,1.15
2022-12-10T06:05:39.570Z,1.14
2022-12-10T06:08:42.343Z,1.14
2022-12-10T06:11:45.033Z,1.12
2022-12-10T06:14:48.358Z,1.10
2022-12-10T06:17:50.967Z,1.09
2022-12-10T06:20:54.883Z,1.11
2022-12-10T06:23:57.601Z,1.12
2022-12-10T06:27:00.226Z,1.18
2022-12-10T06:30:02.792Z,1.20
2022-12-10T06:33:05.404Z,1.20
2022-12-10T06:36:10.627Z,1.21
2022-12-10T06:39:13.604Z,1.15
2022-12-10T06:42:16.288Z,1.10
2022-12-10T06:45:19.048Z,1.07
2022-12-10T06:48:21.663Z,0.91
2022-12-10T06:51:25.571Z,1.03
2022-12-10T06:54:28.408Z,1.07
2022-12-10T06:57:31.045Z,1.06
2022-12-10T07:00:33.713Z,1.07
2022-12-10T07:03:36.484Z,1.08
2022-12-10T07:06:40.382Z,1.13
2022-12-10T07:09:43.082Z,1.17
2022-12-10T07:12:45.676Z,1.18
2022-12-10T07:15:48.338Z,1.18
2022-12-10T07:18:52.618Z,1.20
2022-12-10T07:21:56.843Z,1.21
2022-12-10T07:24:59.451Z,1.23
2022-12-10T07:28:02.072Z,1.26
2022-12-10T07:31:04.761Z,1.32
2022-12-10T07:34:07.337Z,1.29
2022-12-10T07:37:11.378Z,1.34
2022-12-10T07:40:14.134Z,1.34
2022-12-10T07:43:16.705Z,1.35
2022-12-10T07:46:20.387Z,1.36
2022-12-10T07:49:23.057Z,1.35
2022-12-10T07:52:27.013Z,1.33
2022-12-10T07:55:29.565Z,1.33
2022-12-10T07:58:32.182Z,1.28
2022-12-10T08:01:34.768Z,1.23
2022-12-10T08:04:38.530Z,1.23
2022-12-10T08:07:42.857Z,1.22
2022-12-10T08:10:45.453Z,1.19
2022-12-10T08:13:53.426Z,1.23
2022-12-10T08:16:59.065Z,1.23
2022-12-10T08:20:01.679Z,1.22
2022-12-10T08:23:05.638Z,1.25
2022-12-10T08:26:08.444Z,1.24
2022-12-10T08:29:11.014Z,1.25
2022-12-10T08:32:13.663Z,1.24
2022-12-10T08:35:16.471Z,1.20
2022-12-10T08:38:20.417Z,1.14
2022-12-10T08:41:23.788Z,1.03
2022-12-10T08:44:26.332Z,1.10
2022-12-10T08:47:28.950Z,1.07
2022-12-10T08:50:31.524Z,1.10
2022-12-10T08:53:35.632Z,1.12
2022-12-10T08:56:40.166Z,1.09
2022-12-10T08:59:42.793Z,1.11
2022-12-10T09:02:45.400Z,1.14
2022-12-10T09:05:48.504Z,1.16
2022-12-10T09:08:52.659Z,1.16
2022-12-10T09:11:55.216Z,1.13
2022-12-10T09:14:57.776Z,1.12
2022-12-10T09:18:00.326Z,1.14
2022-12-10T09:21:06.885Z,1.15
2022-12-10T09:24:10.929Z,1.17
2022-12-10T09:27:13.533Z,1.19
2022-12-10T09:30:18.169Z,1.20
2022-12-10T09:33:20.769Z,1.19
2022-12-10T09:36:25.477Z,1.15
2022-12-10T09:39:32.661Z,1.13
2022-12-10T09:42:40.246Z,1.05
2022-12-10T09:45:46.299Z,1.03
2022-12-10T09:48:55.392Z,1.06
2022-12-10T09:51:59.682Z,1.10
2022-12-10T09:55:05.063Z,1.10
2022-12-10T09:58:08.299Z,1.12
2022-12-10T10:01:11.609Z,1.06
2022-12-10T10:04:14.630Z,1.04
2022-12-10T10:07:21.126Z,1.07
2022-12-10T10:10:27.550Z,1.08
2022-12-10T10:13:33.621Z,1.07
2022-12-10T10:16:36.997Z,1.08
2022-12-10T10:19:40.486Z,1.06
2022-12-10T10:22:43.075Z,1.10
2022-12-10T10:25:47.114Z,1.12
2022-12-10T10:28:50.019Z,1.10
2022-12-10T10:32:13.160Z,1.17
2022-12-10T10:35:23.042Z,1.18
2022-12-10T10:38:26.337Z,1.16
2022-12-10T10:41:30.493Z,1.07
2022-12-10T10:44:36.616Z,1.07
2022-12-10T10:47:39.195Z,1.10
2022-12-10T10:50:43.474Z,1.11
2022-12-10T10:53:46.541Z,1.14
2022-12-10T10:56:50.434Z,1.15
2022-12-10T10:59:53.741Z,1.17
2022-12-10T11:02:56.305Z,1.19
2022-12-10T11:05:59.530Z,1.22
2022-12-10T11:09:02.150Z,1.28
2022-12-10T11:12:07.410Z,1.34
2022-12-10T11:15:32.441Z,1.38
2022-12-10T11:18:36.344Z,1.38
2022-12-10T11:21:39.171Z,1.43
2022-12-10T11:24:41.757Z,1.49
2022-12-10T11:27:51.137Z,1.56
2022-12-10T11:30:56.714Z,1.62
2022-12-10T11:34:05.168Z,1.69
2022-12-10T11:37:09.367Z,1.66
2022-12-10T11:40:34.760Z,1.65
2022-12-10T11:43:47.195Z,1.65
2022-12-10T11:47:11.643Z,1.73
2022-12-10T11:50:17.574Z,1.75
2022-12-10T11:53:45.380Z,1.72
2022-12-10T11:56:51.914Z,1.65
2022-12-10T12:00:06.349Z,1.61
2022-12-10T12:03:29.766Z,1.66
2022-12-10T12:06:51.579Z,1.74
2022-12-10T12:10:19.513Z,1.74
2022-12-10T12:13:24.587Z,1.66
2022-12-10T12:16:31.647Z,1.66
2022-12-10T12:19:36.291Z,1.69
2022-12-10T12:22:40.469Z,1.63
2022-12-10T12:25:46.424Z,1.58
2022-12-10T12:28:50.032Z,1.46
2022-12-10T12:31:58.253Z,1.58
2022-12-10T12:35:01.980Z,1.62
2022-12-10T12:38:08.596Z,1.56
2022-12-10T12:41:14.915Z,1.55
2022-12-10T12:44:20.920Z,1.55
2022-12-10T12:47:31.274Z,1.55
2022-12-10T12:50:39.336Z,1.55
2022-12-10T12:53:41.977Z,1.53
2022-12-10T12:56:55.205Z,1.56
2022-12-10T12:59:59.890Z,1.56
2022-12-10T13:03:09.666Z,1.64
2022-12-10T13:06:20.186Z,1.71
2022-12-10T13:09:27.838Z,1.75
2022-12-10T13:12:31.513Z,1.81
2022-12-10T13:15:36.040Z,1.85
2022-12-10T13:18:40.757Z,1.89
2022-12-10T13:22:02.473Z,1.93
2022-12-10T13:25:13.720Z,1.95
2022-12-10T13:28:23.911Z,1.98
2022-12-10T13:31:37.486Z,1.95
2022-12-10T13:34:41.530Z,1.88
2022-12-10T13:37:56.905Z,1.88
2022-12-10T13:41:21.884Z,1.90
2022-12-10T13:44:27.440Z,1.90
2022-12-10T13:47:34.052Z,1.88
2022-12-10T13:50:38.886Z,1.93
2022-12-10T13:53:45.815Z,1.99
2022-12-10T13:56:50.813Z,2.03
2022-12-10T13:59:58.553Z,2.09
2022-12-10T14:03:16.835Z,2.12
2022-12-10T14:06:20.879Z,2.16
2022-12-10T14:09:25.721Z,2.26
2022-12-10T14:12:29.793Z,2.29
2022-12-10T14:15:32.444Z,2.32
2022-12-10T14:18:35.014Z,2.30
2022-12-10T14:21:40.468Z,2.25
2022-12-10T14:24:44.282Z,2.27
2022-12-10T14:27:48.515Z,2.28
2022-12-10T14:30:51.152Z,2.30
2022-12-10T14:33:53.752Z,2.35
2022-12-10T14:36:58.462Z,2.41
2022-12-10T14:40:01.090Z,2.47
2022-12-10T14:43:05.385Z,2.52
2022-12-10T14:46:23.019Z,2.51
2022-12-10T14:49:27.384Z,2.50
2022-12-10T14:52:36.344Z,2.47
2022-12-10T14:55:38.946Z,2.46
2022-12-10T14:58:43.229Z,2.49
2022-12-10T15:01:47.472Z,2.52
2022-12-10T15:04:50.747Z,2.54
2022-12-10T15:07:56.050Z,2.53
2022-12-10T15:10:59.737Z,2.49
2022-12-10T15:14:03.199Z,2.44
2022-12-10T15:17:05.794Z,2.43
2022-12-10T15:20:22.213Z,2.42
2022-12-10T15:23:27.969Z,2.45
2022-12-10T15:26:30.778Z,2.49
2022-12-10T15:29:36.709Z,2.53
2022-12-10T15:32:39.293Z,2.57
2022-12-10T15:35:41.887Z,2.61
2022-12-10T15:38:46.306Z,2.66
2022-12-10T15:41:49.381Z,2.68
2022-12-10T15:44:51.951Z,2.68
2022-12-10T15:47:55.111Z,2.74
2022-12-10T15:50:58.737Z,2.74
2022-12-10T15:54:02.677Z,2.71
2022-12-10T15:57:13.167Z,2.76
2022-12-10T16:00:21.004Z,2.77
2022-12-10T16:03:24.078Z,2.73
2022-12-10T16:06:26.693Z,2.75
2022-12-10T16:09:30.642Z,2.73
2022-12-10T16:12:37.232Z,2.73
2022-12-10T16:15:45.045Z,2.76
2022-12-10T16:18:47.791Z,2.74
2022-12-10T16:21:50.364Z,2.73
2022-12-10T16:24:54.303Z,2.71
2022-12-10T16:27:56.941Z,2.72
2022-12-10T16:31:00.769Z,2.72
2022-12-10T16:34:03.395Z,2.67
2022-12-10T16:37:06.182Z,2.73
2022-12-10T16:40:11.240Z,2.69
2022-12-10T16:43:14.641Z,2.66
2022-12-10T16:46:17.315Z,2.68
2022-12-10T16:49:19.974Z,2.68
2022-12-10T16:52:22.679Z,2.69
2022-12-10T16:55:27.322Z,2.67
2022-12-10T16:58:29.926Z,2.70
2022-12-10T17:01:32.814Z,2.66
2022-12-10T17:04:35.434Z,2.64
2022-12-10T17:07:38.031Z,2.62
2022-12-10T17:10:59.729Z,2.60
2022-12-10T17:14:02.421Z,2.60
2022-12-10T17:17:05.042Z,2.60
2022-12-10T17:20:21.119Z,2.58
2022-12-10T17:23:24.148Z,2.58
2022-12-10T17:26:29.571Z,2.59
2022-12-10T17:29:33.640Z,2.59
2022-12-10T17:32:36.219Z,2.63
2022-12-10T17:35:38.815Z,2.64
2022-12-10T17:38:41.418Z,2.64
2022-12-10T17:41:45.474Z,2.65
2022-12-10T17:44:48.063Z,2.68
2022-12-10T17:47:50.665Z,2.67
2022-12-10T17:50:53.281Z,2.64
2022-12-10T17:53:55.915Z,2.62
2022-12-10T17:57:01.026Z,2.61
2022-12-10T18:00:03.854Z,2.58
2022-12-10T18:03:06.866Z,2.56
2022-12-10T18:06:12.394Z,2.59
2022-12-10T18:09:15.025Z,2.60
2022-12-10T18:12:18.930Z,2.59
2022-12-10T18:15:21.676Z,2.56
2022-12-10T18:18:24.288Z,2.54
2022-12-10T18:21:27.212Z,2.50
2022-12-10T18:24:30.114Z,2.44
2022-12-10T18:27:34.037Z,2.44
2022-12-10T18:30:36.656Z,2.40
2022-12-10T18:33:40.242Z,2.35
2022-12-10T18:36:43.918Z,2.32
2022-12-10T18:39:46.529Z,2.32
2022-12-10T18:42:51.416Z,2.33
2022-12-10T18:45:54.059Z,2.35
2022-12-10T18:48:56.839Z,2.38
2022-12-10T18:51:59.400Z,2.40
2022-12-10T18:55:02.051Z,2.44
2022-12-10T18:58:07.121Z,2.48
2022-12-10T19:01:10.240Z,2.51
2022-12-10T19:04:13.198Z,2.56
2022-12-10T19:07:15.796Z,2.60
2022-12-10T19:10:20.317Z,2.66
2022-12-10T19:13:24.291Z,2.70
2022-12-10T19:16:27.210Z,2.75
2022-12-10T19:19:29.860Z,2.80
2022-12-10T19:22:32.842Z,2.87
2022-12-10T19:25:36.078Z,2.91
2022-12-10T19:28:40.045Z,2.95
2022-12-10T19:31:42.788Z,2.97
2022-12-10T19:34:45.366Z,2.98
2022-12-10T19:37:50.625Z,3.00
2022-12-10T19:40:56.958Z,2.97
2022-12-10T19:44:00.896Z,2.93
2022-12-10T19:47:03.516Z,2.92
2022-12-10T19:50:06.918Z,2.92
2022-12-10T19:53:10.123Z,2.96
2022-12-10T19:56:19.256Z,3.00
2022-12-10T19:59:23.230Z,3.03
2022-12-10T20:02:25.811Z,2.99
2022-12-10T20:05:28.483Z,2.97
2022-12-10T20:08:32.178Z,2.93
2022-12-10T20:11:35.141Z,2.94
2022-12-10T20:14:39.061Z,2.96
2022-12-10T20:17:41.629Z,2.97
2022-12-10T20:20:44.215Z,2.97
2022-12-10T20:23:46.981Z,2.97
2022-12-10T20:26:49.790Z,2.97
2022-12-10T20:29:53.920Z,2.98
2022-12-10T20:32:56.616Z,2.97
2022-12-10T20:35:59.309Z,2.97
2022-12-10T20:39:01.896Z,2.97
2022-12-10T20:42:05.551Z,2.97
2022-12-10T20:45:10.186Z,2.98
2022-12-10T20:48:12.902Z,2.97
2022-12-10T20:51:15.503Z,2.98
2022-12-10T20:54:18.105Z,2.93
2022-12-10T20:57:20.696Z,2.92
2022-12-10T21:00:24.657Z,2.88
2022-12-10T21:03:27.262Z,2.93
2022-12-10T21:06:30.572Z,2.96
2022-12-10T21:09:33.122Z,2.98
2022-12-10T21:12:35.694Z,3.01
2022-12-10T21:15:39.728Z,3.04
2022-12-10T21:18:42.373Z,3.04
2022-12-10T21:21:45.678Z,3.03
2022-12-10T21:24:48.226Z,3.04
2022-12-10T21:27:50.781Z,3.04
2022-12-10T21:30:54.891Z,3.06
2022-12-10T21:33:57.577Z,3.02
2022-12-10T21:37:00.154Z,3.06
2022-12-10T21:40:02.814Z,3.05
2022-12-10T21:43:17.139Z,3.08
2022-12-10T21:46:21.180Z,3.11
2022-12-10T21:49:23.832Z,3.13
2022-12-10T21:52:26.409Z,3.13
2022-12-10T21:55:30.772Z,3.15
2022-12-10T21:58:33.543Z,3.14
2022-12-10T22:01:37.556Z,3.13
2022-12-10T22:04:40.438Z,3.10
2022-12-10T22:07:43.260Z,3.04
2022-12-10T22:10:50.130Z,3.05
2022-12-10T22:13:54.029Z,3.02
2022-12-10T22:16:58.016Z,3.00
2022-12-10T22:20:00.625Z,2.99
2022-12-10T22:23:03.410Z,3.00
2022-12-10T22:26:08.665Z,3.03
2022-12-10T22:29:11.269Z,3.08
2022-12-10T22:32:15.338Z,3.15
2022-12-10T22:35:18.004Z,3.21
2022-12-10T22:38:20.576Z,3.28
2022-12-10T22:41:23.186Z,3.26
2022-12-10T22:44:25.806Z,3.38
2022-12-10T22:47:29.893Z,3.42
2022-12-10T22:50:32.453Z,3.45
2022-12-10T22:53:35.202Z,3.46
2022-12-10T22:56:38.610Z,3.45
2022-12-10T22:59:41.229Z,3.40
2022-12-10T23:02:45.297Z,3.45
2022-12-10T23:05:47.912Z,3.43
2022-12-10T23:08:50.643Z,3.36
2022-12-10T23:12:10.688Z,3.29
2022-12-10T23:15:13.243Z,3.17
2022-12-10T23:18:17.146Z,3.14
2022-12-10T23:21:21.227Z,3.10
2022-12-10T23:24:23.834Z,3.16
2022-12-10T23:27:26.478Z,3.16
2022-12-10T23:30:29.093Z,3.17
2022-12-10T23:33:33.351Z,3.20
2022-12-10T23:36:35.910Z,3.21
2022-12-10T23:39:38.897Z,3.22
2022-12-10T23:42:41.466Z,3.15
2022-12-10T23:45:44.487Z,3.16
2022-12-10T23:48:48.528Z,3.15
2022-12-10T23:51:51.103Z,3.17
2022-12-10T23:54:53.673Z,3.15
2022-12-10T23:57:56.392Z,3.15
